createdAt,value
2023-02-06T07:46:09.662Z,-41.4
2023-02-06T07:48:11.443Z,-37.8
2023-02-06T07:50:13.326Z,-35.09
2023-02-06T07:52:14.723Z,-30.6
2023-02-06T07:54:16.222Z,-27.8
2023-02-06T07:56:18.313Z,-20.29
2023-02-06T07:58:19.711Z,2
2023-02-06T08:00:21.182Z,8.89
2023-02-06T08:02:22.541Z,42.6
2023-02-06T08:04:23.766Z,41.9
2023-02-06T08:06:25.690Z,56.9
2023-02-06T08:12:31.085Z,56.5
2023-02-06T08:14:32.760Z,-10.3
2023-02-06T08:16:34.483Z,-31.6
2023-02-06T08:18:35.812Z,-42.4
2023-02-06T08:20:37.644Z,-44.9
2023-02-06T08:24:40.427Z,-36.5
2023-02-06T08:26:41.670Z,-28.6
2023-02-06T08:28:43.425Z,-32.09
2023-02-06T08:30:44.632Z,2.3
2023-02-06T08:32:46.514Z,2
2023-02-06T08:34:48.383Z,9.89
2023-02-06T08:38:51.871Z,-5.3
2023-02-06T08:40:53.598Z,-2.5
2023-02-06T08:42:55.229Z,-2.8
2023-02-06T08:44:56.694Z,1.1
2023-02-06T08:48:59.830Z,1
2023-02-06T08:51:00.846Z,3.1
2023-02-06T08:53:01.873Z,5.8
2023-02-06T08:55:03.345Z,4.69
2023-02-06T08:57:04.652Z,17.5
2023-02-06T08:59:05.962Z,32.9
2023-02-06T09:01:07.151Z,34.5
2023-02-06T09:03:08.889Z,37.59
2023-02-06T09:07:11.321Z,22.4
2023-02-06T09:11:14.887Z,9.7
2023-02-06T09:13:16.432Z,11.7
2023-02-06T09:15:17.974Z,13.9
2023-02-06T09:17:19.888Z,37.8
2023-02-06T09:21:22.786Z,57
2023-02-06T09:23:23.969Z,56.4
2023-02-06T09:25:25.220Z,73.1
2023-02-06T09:27:26.641Z,74.1
2023-02-06T09:29:28.840Z,59
2023-02-06T09:31:29.853Z,75.1
2023-02-06T09:33:31.119Z,75.9
2023-02-06T09:35:33.061Z,81.8
2023-02-06T09:37:34.073Z,57.1
2023-02-06T09:39:35.467Z,55.5
2023-02-06T09:41:37.355Z,57.2
2023-02-06T09:43:39.258Z,29.9
2023-02-06T09:45:40.623Z,-5.9
2023-02-06T09:47:42.027Z,-16.2
2023-02-06T09:49:43.950Z,7.5
2023-02-06T09:53:47.070Z,-3.4
2023-02-06T09:55:48.029Z,-3.4
2023-02-06T09:57:49.345Z,-9.1
2023-02-06T09:59:51.231Z,-12.1
2023-02-06T10:05:56.088Z,-37.3
2023-02-06T10:07:57.781Z,-39.09
2023-02-06T10:09:59.516Z,-17.29
2023-02-06T10:12:00.505Z,-22.9
2023-02-06T10:14:01.668Z,-44.2
2023-02-06T10:16:03.088Z,-42.6
2023-02-06T10:18:04.633Z,-41.7
2023-02-06T10:20:06.277Z,-44.3
2023-02-06T10:22:07.776Z,-45.2
2023-02-06T10:24:09.412Z,-43.8
2023-02-06T10:26:10.496Z,-19.4
2023-02-06T10:28:12.244Z,-42.1
2023-02-06T10:30:14.093Z,-41.4
2023-02-06T10:32:15.821Z,-40.5
2023-02-06T10:34:17.816Z,-40.4
2023-02-06T10:36:19.159Z,-36.9
2023-02-06T10:38:20.983Z,-38.4
2023-02-06T10:40:22.137Z,-36.4
2023-02-06T10:42:23.774Z,-29.2
2023-02-06T10:44:25.244Z,-25.9
2023-02-06T10:48:27.842Z,-18.1
2023-02-06T10:50:29.481Z,-10
2023-02-06T10:52:30.878Z,-4.4
2023-02-06T10:54:31.946Z,8.5
2023-02-06T10:56:32.928Z,9.7
2023-02-06T10:58:34.777Z,36.9
2023-02-06T11:04:38.768Z,82.3
2023-02-06T11:09:25.281Z,79
2023-02-06T11:11:26.597Z,81.8
2023-02-06T11:13:28.626Z,57.2
2023-02-06T11:15:30.288Z,57
2023-02-06T11:19:33.170Z,55.8
2023-02-06T11:21:35.074Z,55.8
2023-02-06T11:23:36.578Z,56
2023-02-06T11:25:38.817Z,81.9
2023-02-06T11:29:41.248Z,35.7
2023-02-06T11:31:43.154Z,57.3
2023-02-06T11:33:44.298Z,83.2
2023-02-06T11:35:45.887Z,83
2023-02-06T11:39:48.387Z,74
2023-02-06T11:41:49.975Z,81.9
2023-02-06T11:43:51.547Z,56.2
2023-02-06T11:45:52.571Z,26.1
2023-02-06T11:49:55.486Z,-2.4
2023-02-06T11:51:57.086Z,31.2
2023-02-06T11:56:00.784Z,2.9
2023-02-06T11:58:02.222Z,13.6
2023-02-06T12:00:03.830Z,58.4
2023-02-06T12:02:05.153Z,57
2023-02-06T12:08:09.418Z,83
2023-02-06T12:10:11.237Z,83
2023-02-06T12:12:13.081Z,57.2
2023-02-06T12:14:14.434Z,82.4
2023-02-06T12:16:16.401Z,57.4
2023-02-06T12:18:17.884Z,57.2
2023-02-06T12:22:20.488Z,57.3
2023-02-06T12:24:21.650Z,56.9
2023-02-06T12:26:22.794Z,57.2
2023-02-06T12:28:24.181Z,57.2
2023-02-06T12:30:25.110Z,57
2023-02-06T12:32:26.048Z,82.5
2023-02-06T12:34:27.317Z,63.9
2023-02-06T12:36:28.917Z,82.9
2023-02-06T12:38:30.820Z,39.5
2023-02-06T12:40:31.956Z,29.5
2023-02-06T12:42:32.944Z,37.5
2023-02-06T12:44:34.771Z,45.5
2023-02-06T12:46:36.702Z,44.3
2023-02-06T12:48:38.475Z,45.5
2023-02-06T12:50:39.635Z,50.1
2023-02-06T12:54:42.524Z,82.9
2023-02-06T12:56:44.266Z,34.09
2023-02-06T12:58:45.445Z,35.5
2023-02-06T13:00:46.403Z,41
2023-02-06T13:06:50.716Z,38.59
2023-02-06T13:08:51.895Z,15.1
2023-02-06T13:10:53.094Z,39.09
2023-02-06T13:12:54.597Z,36
2023-02-06T13:14:55.651Z,8.1
2023-02-06T13:16:57.434Z,25.4
2023-02-06T13:18:58.628Z,-6
2023-02-06T13:21:00.338Z,28.9
2023-02-06T13:23:01.736Z,34.09
2023-02-06T13:27:04.954Z,22.9
2023-02-06T13:29:06.623Z,-3.1
2023-02-06T13:31:08.563Z,15.6
2023-02-06T13:33:10.133Z,32.09
2023-02-06T13:39:15.083Z,41.1
2023-02-06T13:41:16.415Z,26.1
2023-02-06T13:43:17.350Z,-11.1
2023-02-06T13:45:18.774Z,-19.9
2023-02-06T13:47:19.802Z,-13
2023-02-06T13:49:21.546Z,-18.4
2023-02-06T13:51:22.696Z,-17.5
2023-02-06T13:53:24.397Z,-22.6
2023-02-06T13:55:25.608Z,-26.7
2023-02-06T13:57:27.562Z,-26.7
2023-02-06T13:59:28.827Z,-22.2
2023-02-06T14:01:30.587Z,-20.7
2023-02-06T14:03:32.381Z,-23.9
2023-02-06T14:05:34.133Z,-26.7
2023-02-06T14:09:39.887Z,-27.4
2023-02-06T14:11:39.364Z,-27.3
2023-02-06T14:13:40.657Z,-26.8
2023-02-06T14:15:42.228Z,-27
2023-02-06T14:19:45.939Z,-27.3
2023-02-06T14:21:47.490Z,-27.3
2023-02-06T14:23:48.500Z,-27.1
2023-02-06T14:25:49.936Z,-27.3
2023-02-06T14:27:51.792Z,-27.2
2023-02-06T14:29:53.739Z,-27.1
2023-02-06T14:31:55.144Z,-27.1
2023-02-06T14:33:56.227Z,-27.1
2023-02-06T14:35:57.401Z,-27.4
2023-02-06T14:37:58.948Z,-27.3
2023-02-06T14:40:04.577Z,-27.3
2023-02-06T14:42:01.115Z,-27.1
2023-02-06T14:44:02.763Z,-27.1
2023-02-06T14:46:07.813Z,-20.9
2023-02-06T14:48:06.616Z,-21.6
2023-02-06T14:52:10.526Z,-23.2
2023-02-06T14:54:11.653Z,-10.9
2023-02-06T14:56:13.464Z,-12
2023-02-06T14:58:15.250Z,-16.6
2023-02-06T15:04:19.065Z,-25.6
2023-02-06T15:06:20.737Z,-25.4
2023-02-06T15:08:22.403Z,-27.1
2023-02-06T15:10:23.832Z,-23.9
2023-02-06T15:12:25.114Z,27.8
2023-02-06T15:14:26.368Z,82.8
2023-02-06T15:16:27.912Z,-21.7
2023-02-06T15:18:28.985Z,-23.3
2023-02-06T15:20:30.148Z,-24.4
2023-02-06T15:22:31.689Z,-24.6
2023-02-06T15:24:32.711Z,-26.6
2023-02-06T15:26:33.772Z,-27.1
2023-02-06T15:28:35.297Z,-27.3
2023-02-06T15:30:37.162Z,-27.3
2023-02-06T15:32:38.788Z,-27.2
2023-02-06T15:34:40.166Z,-27
2023-02-06T15:36:41.837Z,-27.3
2023-02-06T15:40:44.664Z,-27.5
2023-02-06T15:42:46.131Z,-27.1
2023-02-06T15:44:47.541Z,-27.2
2023-02-06T15:46:49.475Z,-27.4
2023-02-06T15:48:50.567Z,-27.2
2023-02-06T15:50:52.365Z,-27.5
2023-02-06T15:52:53.511Z,-27.2
2023-02-06T15:54:54.636Z,-27
2023-02-06T15:56:56.395Z,-27.2
2023-02-06T16:03:01.347Z,-27.1
2023-02-06T16:05:03.124Z,-27.2
2023-02-06T16:07:04.279Z,-27.2
2023-02-06T16:09:05.450Z,-27.1
2023-02-06T16:11:06.871Z,-27.5
2023-02-06T16:13:07.960Z,-27.3
2023-02-06T16:17:10.834Z,-27.1
2023-02-06T16:19:12.656Z,-27.1
2023-02-06T16:21:13.816Z,-27.6
2023-02-06T16:23:15.113Z,-27.3
2023-02-06T16:27:18.725Z,-27.1
2023-02-06T16:29:20.268Z,-27.3
2023-02-06T16:31:22.042Z,-27.1
2023-02-06T16:33:23.777Z,-27.1
2023-02-06T16:35:25.515Z,-27.3
2023-02-06T16:37:26.975Z,-27.1
2023-02-06T16:39:28.946Z,-27.1
2023-02-06T16:43:31.830Z,-27.2
2023-02-06T16:45:33.832Z,-27.3
2023-02-06T16:47:34.919Z,-27.4
2023-02-06T16:49:35.912Z,-27.2
2023-02-06T16:51:37.616Z,-27.1
2023-02-06T16:53:39.384Z,-27.2
2023-02-06T16:55:40.710Z,-27.1
2023-02-06T16:59:44.645Z,-27.3
2023-02-06T17:01:46.347Z,-27.1
2023-02-06T17:03:47.385Z,-27.3
2023-02-06T17:05:49.217Z,-27.1
2023-02-06T17:11:53.979Z,-27.2
2023-02-06T17:13:55.897Z,-27.4
2023-02-06T17:15:57.271Z,-27.1
2023-02-06T17:17:58.989Z,-27.2
2023-02-06T17:20:00.821Z,-27.3
2023-02-06T17:22:02.632Z,-27.2
2023-02-06T17:26:05.247Z,-27.1
2023-02-06T17:28:07.121Z,-27.3
2023-02-06T17:30:09.054Z,-27.2
2023-02-06T17:32:10.533Z,-27.1
2023-02-06T17:34:11.846Z,-27.2
2023-02-06T17:36:13.226Z,-27.4
2023-02-06T17:38:15.187Z,-27.4
2023-02-06T17:42:18.109Z,-27.5
2023-02-06T17:44:19.451Z,-27.3
2023-02-06T17:46:21.453Z,-27.4
2023-02-06T17:48:23.056Z,-27.4
2023-02-06T17:51:08.251Z,-27
2023-02-06T17:53:10.044Z,-27.5
2023-02-06T17:55:11.913Z,-27.3
2023-02-06T17:57:13.636Z,-27.1
2023-02-06T17:59:15.346Z,-27.1
2023-02-06T18:01:17.263Z,-27.2
2023-02-06T18:03:18.461Z,-27.2
2023-02-06T18:05:19.975Z,-27.2
2023-02-06T18:07:21.908Z,-26.9
2023-02-06T18:09:23.050Z,-27.4
2023-02-06T18:11:24.986Z,-27.3
2023-02-06T18:13:26.887Z,-27.1
2023-02-06T18:15:29.374Z,-27
2023-02-06T18:17:29.437Z,-27.1
2023-02-06T18:19:31.020Z,-27
2023-02-06T18:21:32.595Z,-27.1
2023-02-06T18:23:34.639Z,-27.1
2023-02-06T18:25:36.373Z,-27.4
2023-02-06T18:27:38.044Z,-27.1
2023-02-06T18:29:48.805Z,-27.1
2023-02-06T18:31:41.577Z,-27.3
2023-02-06T18:35:44.203Z,-27.5
2023-02-06T18:37:46.072Z,-27.3
2023-02-06T18:39:47.462Z,-27.4
2023-02-06T18:41:48.788Z,-27.1
2023-02-06T18:47:52.840Z,-27.1
2023-02-06T18:49:54.546Z,-27.2
2023-02-06T18:51:55.785Z,-27.1
2023-02-06T18:53:56.851Z,-27.1
2023-02-06T18:55:58.785Z,-27.2
2023-02-06T18:58:00.650Z,-27.2
2023-02-06T19:00:02.272Z,-27.1
2023-02-06T19:02:04.305Z,-27.1
2023-02-06T19:04:05.317Z,-27.1
2023-02-06T19:06:06.482Z,-26.9
2023-02-06T19:08:07.563Z,-27.1
2023-02-06T19:10:09.355Z,-27.2
2023-02-06T19:12:11.159Z,-27.1
2023-02-06T19:14:13.103Z,-27.1
2023-02-06T19:16:14.853Z,-27.2
2023-02-06T19:18:18.248Z,-27.3
2023-02-06T19:20:18.253Z,-27.2
2023-02-06T19:22:20.132Z,-26.9
2023-02-06T19:24:21.244Z,-27.2
2023-02-06T19:30:25.782Z,-27.1
2023-02-06T19:32:26.971Z,-27.2
2023-02-06T19:34:28.003Z,-27.3
2023-02-06T19:36:29.872Z,-27
2023-02-06T19:38:31.341Z,-27.3
2023-02-06T19:40:32.552Z,-27.1
2023-02-06T19:44:35.612Z,-27.4
2023-02-06T19:46:37.141Z,-27.3
2023-02-06T19:48:38.610Z,-27.2
2023-02-06T19:50:40.426Z,-27.3
2023-02-06T19:52:42.070Z,-27.2
2023-02-06T19:54:43.443Z,-27.3
2023-02-06T19:56:44.989Z,-27.4
2023-02-06T19:58:46.661Z,-27.3
2023-02-06T20:00:48.458Z,-27.1
2023-02-06T20:02:49.687Z,-27.3
2023-02-06T20:06:53.282Z,-27.2
2023-02-06T20:08:54.817Z,-27.1
2023-02-06T20:10:56.833Z,-27.1
2023-02-06T20:12:58.272Z,-27
2023-02-06T20:14:59.755Z,-27.3
2023-02-06T20:17:01.167Z,-27.1
2023-02-06T20:19:02.649Z,-27.1
2023-02-06T20:21:04.110Z,-27.2
2023-02-06T20:23:05.622Z,-27.1
2023-02-06T20:29:09.926Z,-27.1
2023-02-06T20:31:11.411Z,-27
2023-02-06T20:33:13.012Z,-27.2
2023-02-06T20:35:14.060Z,-27.1
2023-02-06T20:37:15.453Z,-27
2023-02-06T20:39:16.529Z,-27.5
2023-02-06T20:43:19.627Z,-27.1
2023-02-06T20:45:20.792Z,-27.3
2023-02-06T20:47:21.873Z,-27.2
2023-02-06T20:49:23.109Z,-27.2
2023-02-06T20:55:28.158Z,-27
2023-02-06T20:57:29.326Z,-27.2
2023-02-06T20:59:30.609Z,-27.1
2023-02-06T21:01:32.140Z,-27.2
2023-02-06T21:03:34.122Z,-27.2
2023-02-06T21:05:36.158Z,-27.4
2023-02-06T21:09:39.467Z,-27.1
2023-02-06T21:11:40.524Z,-27.1
2023-02-06T21:13:42.190Z,-27.4
2023-02-06T21:15:43.842Z,-27.2
2023-02-06T21:17:44.928Z,-27.1
2023-02-06T21:19:46.563Z,-27.2
2023-02-06T21:21:47.666Z,-27.3
2023-02-06T21:23:48.705Z,-27.3
2023-02-06T21:25:50.676Z,-27.2
2023-02-06T21:27:52.127Z,-27.2
2023-02-06T21:29:53.543Z,-27.4
2023-02-06T21:32:07.398Z,-27.2
2023-02-06T21:33:57.018Z,-27.2
2023-02-06T21:35:58.347Z,-27.6
2023-02-06T21:37:59.786Z,-27.2
2023-02-06T21:42:03.042Z,-27.3
2023-02-06T21:44:04.242Z,-27.2
2023-02-06T21:46:05.621Z,-27.1
2023-02-06T21:48:07.564Z,-27.3
2023-02-06T21:54:12.786Z,-27
2023-02-06T21:56:14.530Z,-27.3
2023-02-06T21:58:16.094Z,-27.2
2023-02-06T22:00:18.129Z,-27.3
2023-02-06T22:02:19.747Z,-27
2023-02-06T22:04:20.963Z,-27.5
2023-02-06T22:06:22.682Z,-27.2
2023-02-06T22:08:24.756Z,-27.3
2023-02-06T22:10:26.722Z,-27.1
2023-02-06T22:12:27.915Z,-27.4
2023-02-06T22:14:29.116Z,-27.2
2023-02-06T22:16:30.591Z,-27.3
2023-02-06T22:20:34.113Z,-27.2
2023-02-06T22:22:35.299Z,-27.5
2023-02-06T22:24:36.546Z,-27.2
2023-02-06T22:26:38.272Z,-27.2
2023-02-06T22:28:48.470Z,-27.3
2023-02-06T22:30:40.997Z,-27.2
2023-02-06T22:32:42.045Z,-27.2
2023-02-06T22:36:44.983Z,-27.4
2023-02-06T22:38:46.833Z,-27.2
2023-02-06T22:40:48.667Z,-27.3
2023-02-06T22:42:50.444Z,-27.1
2023-02-06T22:44:52.045Z,-27.1
2023-02-06T22:46:54.027Z,-27.3
2023-02-06T22:48:55.754Z,-27.2
2023-02-06T22:50:57.141Z,-27.4
2023-02-06T22:52:58.649Z,-27.1
2023-02-06T22:55:00.142Z,-27.1
2023-02-06T22:57:01.183Z,-27.2
2023-02-06T22:59:02.419Z,-27.2
2023-02-06T23:01:04.052Z,-27.4
2023-02-06T23:03:05.555Z,-27
2023-02-06T23:07:08.400Z,-27.2
2023-02-06T23:09:09.809Z,-27.1
2023-02-06T23:11:11.427Z,-27.2
2023-02-06T23:13:12.928Z,-27.2
2023-02-06T23:15:14.662Z,-27.1
2023-02-06T23:17:15.884Z,-27.2
2023-02-06T23:19:17.133Z,-27.3
2023-02-06T23:21:18.679Z,-27.1
2023-02-06T23:23:20.328Z,-27.1
2023-02-06T23:25:21.656Z,-27.3
2023-02-06T23:27:23.611Z,-27
2023-02-06T23:29:25.005Z,-27.2
2023-02-06T23:33:28.198Z,-27.1
2023-02-06T23:35:29.569Z,-27.2
2023-02-06T23:37:30.766Z,-27.1
2023-02-06T23:39:32.811Z,-27.4
2023-02-06T23:41:34.028Z,-52
2023-02-06T23:43:36.005Z,-27.4
2023-02-06T23:45:38.118Z,-27.3
2023-02-06T23:47:39.727Z,-27.1
2023-02-06T23:49:41.312Z,-26.9
2023-02-06T23:51:43.162Z,-34.59
2023-02-06T23:53:44.534Z,-51.5
2023-02-06T23:55:45.605Z,-27.1
2023-02-06T23:57:47.659Z,-27.3
2023-02-06T23:59:49.358Z,-27
